Easton, New Hampshire
Current Conditions -  °F | °C
As of 6:55 PM on Monday 20 Oct 2014 (Local Time) from K1P1 Reporting Station
Overcast Overcast  
Wind Chill: 45°   Ceiling: 8000
Heat Index: 45°   Visibility: 10mi
Dew Point: 42°   Wind: 0mph
Humidity: 88%   Direction: NA
Pressure: 29.95"   Gusts: NA
Location:  44.1173°N, 71.8999°W
Report Text: K1P1 202255Z AUTO 00000KT 10SM OVC080 07/06 A2995 RMK AO2 T00730055
Loading
Personal Weather Stations






























Interactive Weather Map
Tropical Storm Tracking
New forecast layout! Learn more

10-Day Weather Forecast

Advertisements
Track Severe Weather on mobile